sensor_id;sensor_type;location;lat;lon;timestamp;P1;durP1;ratioP1;P2;durP2;ratioP2
72053;SDS011;59918;51.280;7.950;2022-11-20T00:01:16;21.17;;;10.30;;
72053;SDS011;59918;51.280;7.950;2022-11-20T00:03:44;21.00;;;10.23;;
72053;SDS011;59918;51.280;7.950;2022-11-20T00:06:11;20.73;;;10.45;;
72053;SDS011;59918;51.280;7.950;2022-11-20T00:08:38;21.83;;;10.20;;
72053;SDS011;59918;51.280;7.950;2022-11-20T00:11:07;21.05;;;10.48;;
72053;SDS011;59918;51.280;7.950;2022-11-20T00:13:34;22.60;;;9.20;;
72053;SDS011;59918;51.280;7.950;2022-11-20T00:16:00;21.60;;;9.82;;
72053;SDS011;59918;51.280;7.950;2022-11-20T00:18:29;20.25;;;9.55;;
72053;SDS011;59918;51.280;7.950;2022-11-20T00:21:00;19.67;;;9.82;;
72053;SDS011;59918;51.280;7.950;2022-11-20T00:23:26;22.55;;;11.02;;
72053;SDS011;59918;51.280;7.950;2022-11-20T00:25:51;18.50;;;9.55;;
72053;SDS011;59918;51.280;7.950;2022-11-20T00:28:17;17.17;;;9.93;;
72053;SDS011;59918;51.280;7.950;2022-11-20T00:30:42;22.50;;;10.27;;
72053;SDS011;59918;51.280;7.950;2022-11-20T00:33:07;22.13;;;10.70;;
72053;SDS011;59918;51.280;7.950;2022-11-20T00:35:32;19.38;;;10.57;;
72053;SDS011;59918;51.280;7.950;2022-11-20T00:37:57;16.88;;;8.45;;
72053;SDS011;59918;51.280;7.950;2022-11-20T00:40:23;17.35;;;8.43;;
72053;SDS011;59918;51.280;7.950;2022-11-20T00:42:48;16.50;;;8.27;;
72053;SDS011;59918;51.280;7.950;2022-11-20T00:45:13;14.75;;;8.07;;
72053;SDS011;59918;51.280;7.950;2022-11-20T00:47:39;14.55;;;7.53;;
72053;SDS011;59918;51.280;7.950;2022-11-20T00:50:04;15.02;;;7.68;;
72053;SDS011;59918;51.280;7.950;2022-11-20T00:52:29;14.50;;;7.57;;
72053;SDS011;59918;51.280;7.950;2022-11-20T00:54:54;17.92;;;8.32;;
72053;SDS011;59918;51.280;7.950;2022-11-20T00:57:20;15.85;;;8.40;;
72053;SDS011;59918;51.280;7.950;2022-11-20T00:59:45;16.65;;;8.68;;
72053;SDS011;59918;51.280;7.950;2022-11-20T01:02:10;20.17;;;10.30;;
72053;SDS011;59918;51.280;7.950;2022-11-20T01:04:35;18.70;;;9.45;;
72053;SDS011;59918;51.280;7.950;2022-11-20T01:07:01;18.80;;;9.73;;
72053;SDS011;59918;51.280;7.950;2022-11-20T01:09:26;19.48;;;9.68;;
72053;SDS011;59918;51.280;7.950;2022-11-20T01:11:53;18.83;;;9.13;;
72053;SDS011;59918;51.280;7.950;2022-11-20T01:14:19;15.70;;;8.98;;
72053;SDS011;59918;51.280;7.950;2022-11-20T01:16:48;19.92;;;9.65;;
72053;SDS011;59918;51.280;7.950;2022-11-20T01:19:16;18.92;;;8.68;;
72053;SDS011;59918;51.280;7.950;2022-11-20T01:21:44;16.83;;;8.20;;
72053;SDS011;59918;51.280;7.950;2022-11-20T01:24:11;14.23;;;8.10;;
72053;SDS011;59918;51.280;7.950;2022-11-20T01:26:38;15.15;;;7.72;;
72053;SDS011;59918;51.280;7.950;2022-11-20T01:29:05;14.13;;;8.68;;
72053;SDS011;59918;51.280;7.950;2022-11-20T01:31:34;18.25;;;9.40;;
72053;SDS011;59918;51.280;7.950;2022-11-20T01:34:02;17.48;;;9.38;;
72053;SDS011;59918;51.280;7.950;2022-11-20T01:36:30;22.67;;;10.25;;
72053;SDS011;59918;51.280;7.950;2022-11-20T01:38:59;20.10;;;10.98;;
72053;SDS011;59918;51.280;7.950;2022-11-20T01:41:27;22.65;;;10.77;;
72053;SDS011;59918;51.280;7.950;2022-11-20T01:43:55;19.20;;;10.18;;
72053;SDS011;59918;51.280;7.950;2022-11-20T01:46:20;18.83;;;9.85;;
72053;SDS011;59918;51.280;7.950;2022-11-20T01:51:30;19.48;;;10.18;;
72053;SDS011;59918;51.280;7.950;2022-11-20T01:54:01;17.45;;;9.07;;
72053;SDS011;59918;51.280;7.950;2022-11-20T01:56:30;18.20;;;10.20;;
72053;SDS011;59918;51.280;7.950;2022-11-20T01:59:01;21.00;;;9.60;;
72053;SDS011;59918;51.280;7.950;2022-11-20T02:01:34;19.15;;;10.25;;
72053;SDS011;59918;51.280;7.950;2022-11-20T02:03:59;18.58;;;9.82;;
72053;SDS011;59918;51.280;7.950;2022-11-20T02:06:27;18.88;;;10.02;;
72053;SDS011;59918;51.280;7.950;2022-11-20T02:08:57;19.60;;;10.48;;
72053;SDS011;59918;51.280;7.950;2022-11-20T02:11:22;19.25;;;10.80;;
72053;SDS011;59918;51.280;7.950;2022-11-20T02:13:48;21.67;;;11.32;;
72053;SDS011;59918;51.280;7.950;2022-11-20T02:18:54;19.27;;;10.57;;
72053;SDS011;59918;51.280;7.950;2022-11-20T02:21:37;20.25;;;10.13;;
72053;SDS011;59918;51.280;7.950;2022-11-20T02:24:14;18.40;;;10.32;;
72053;SDS011;59918;51.280;7.950;2022-11-20T02:26:45;19.15;;;10.00;;
72053;SDS011;59918;51.280;7.950;2022-11-20T02:29:16;16.38;;;9.35;;
72053;SDS011;59918;51.280;7.950;2022-11-20T02:31:44;16.52;;;9.43;;
72053;SDS011;59918;51.280;7.950;2022-11-20T02:34:10;19.08;;;10.00;;
72053;SDS011;59918;51.280;7.950;2022-11-20T02:36:35;22.48;;;10.60;;
72053;SDS011;59918;51.280;7.950;2022-11-20T02:39:04;21.80;;;10.93;;
72053;SDS011;59918;51.280;7.950;2022-11-20T02:41:30;24.52;;;11.52;;
72053;SDS011;59918;51.280;7.950;2022-11-20T02:43:57;19.48;;;9.90;;
72053;SDS011;59918;51.280;7.950;2022-11-20T02:46:22;21.10;;;11.27;;
72053;SDS011;59918;51.280;7.950;2022-11-20T02:48:47;24.77;;;12.00;;
72053;SDS011;59918;51.280;7.950;2022-11-20T02:51:13;27.23;;;11.65;;
72053;SDS011;59918;51.280;7.950;2022-11-20T02:53:38;18.17;;;11.00;;
72053;SDS011;59918;51.280;7.950;2022-11-20T02:56:03;20.45;;;10.95;;
72053;SDS011;59918;51.280;7.950;2022-11-20T02:58:29;21.50;;;10.45;;
72053;SDS011;59918;51.280;7.950;2022-11-20T03:00:54;20.48;;;10.85;;
72053;SDS011;59918;51.280;7.950;2022-11-20T03:03:19;22.00;;;11.10;;
72053;SDS011;59918;51.280;7.950;2022-11-20T03:05:45;17.70;;;9.95;;
72053;SDS011;59918;51.280;7.950;2022-11-20T03:08:10;18.25;;;9.70;;
72053;SDS011;59918;51.280;7.950;2022-11-20T03:10:37;18.83;;;10.18;;
72053;SDS011;59918;51.280;7.950;2022-11-20T03:13:03;17.73;;;9.77;;
72053;SDS011;59918;51.280;7.950;2022-11-20T03:15:28;17.00;;;10.02;;
72053;SDS011;59918;51.280;7.950;2022-11-20T03:17:54;22.88;;;10.05;;
72053;SDS011;59918;51.280;7.950;2022-11-20T03:20:20;19.63;;;10.00;;
72053;SDS011;59918;51.280;7.950;2022-11-20T03:22:45;22.60;;;10.73;;
72053;SDS011;59918;51.280;7.950;2022-11-20T03:25:10;21.67;;;10.43;;
72053;SDS011;59918;51.280;7.950;2022-11-20T03:27:35;21.75;;;10.32;;
72053;SDS011;59918;51.280;7.950;2022-11-20T03:30:01;24.40;;;10.88;;
72053;SDS011;59918;51.280;7.950;2022-11-20T03:32:26;21.52;;;10.00;;
72053;SDS011;59918;51.280;7.950;2022-11-20T03:34:51;21.42;;;10.50;;
72053;SDS011;59918;51.280;7.950;2022-11-20T03:37:16;21.67;;;10.43;;
72053;SDS011;59918;51.280;7.950;2022-11-20T03:39:42;21.35;;;10.25;;
72053;SDS011;59918;51.280;7.950;2022-11-20T03:42:08;26.58;;;10.75;;
72053;SDS011;59918;51.280;7.950;2022-11-20T03:44:35;23.15;;;10.75;;
72053;SDS011;59918;51.280;7.950;2022-11-20T03:47:01;30.55;;;12.23;;
72053;SDS011;59918;51.280;7.950;2022-11-20T03:49:26;21.90;;;10.43;;
72053;SDS011;59918;51.280;7.950;2022-11-20T03:51:51;23.25;;;11.20;;
72053;SDS011;59918;51.280;7.950;2022-11-20T03:54:16;23.60;;;10.93;;
72053;SDS011;59918;51.280;7.950;2022-11-20T03:56:42;20.98;;;11.02;;
72053;SDS011;59918;51.280;7.950;2022-11-20T03:59:09;24.00;;;10.93;;
72053;SDS011;59918;51.280;7.950;2022-11-20T04:01:36;28.45;;;11.32;;
72053;SDS011;59918;51.280;7.950;2022-11-20T04:04:01;25.90;;;11.10;;
72053;SDS011;59918;51.280;7.950;2022-11-20T04:06:32;24.80;;;11.05;;
72053;SDS011;59918;51.280;7.950;2022-11-20T04:09:02;24.20;;;11.27;;
72053;SDS011;59918;51.280;7.950;2022-11-20T04:11:28;23.42;;;12.02;;
72053;SDS011;59918;51.280;7.950;2022-11-20T04:13:59;21.00;;;11.23;;
72053;SDS011;59918;51.280;7.950;2022-11-20T04:16:26;22.40;;;11.30;;
72053;SDS011;59918;51.280;7.950;2022-11-20T04:18:55;27.42;;;11.60;;
72053;SDS011;59918;51.280;7.950;2022-11-20T04:21:22;27.08;;;12.02;;
72053;SDS011;59918;51.280;7.950;2022-11-20T04:23:51;24.73;;;11.93;;
72053;SDS011;59918;51.280;7.950;2022-11-20T04:26:17;20.10;;;10.50;;
72053;SDS011;59918;51.280;7.950;2022-11-20T04:28:42;28.05;;;10.82;;
72053;SDS011;59918;51.280;7.950;2022-11-20T04:31:09;31.40;;;11.80;;
72053;SDS011;59918;51.280;7.950;2022-11-20T04:33:36;21.88;;;10.98;;
72053;SDS011;59918;51.280;7.950;2022-11-20T04:36:03;29.70;;;10.68;;
72053;SDS011;59918;51.280;7.950;2022-11-20T04:38:31;24.33;;;10.10;;
72053;SDS011;59918;51.280;7.950;2022-11-20T04:41:01;25.65;;;11.32;;
72053;SDS011;59918;51.280;7.950;2022-11-20T04:43:29;25.30;;;10.83;;
72053;SDS011;59918;51.280;7.950;2022-11-20T04:45:55;25.65;;;11.15;;
72053;SDS011;59918;51.280;7.950;2022-11-20T04:48:21;36.08;;;14.38;;
72053;SDS011;59918;51.280;7.950;2022-11-20T04:50:49;27.42;;;12.65;;
72053;SDS011;59918;51.280;7.950;2022-11-20T04:53:16;34.08;;;11.77;;
72053;SDS011;59918;51.280;7.950;2022-11-20T04:55:41;36.35;;;12.45;;
72053;SDS011;59918;51.280;7.950;2022-11-20T04:58:07;29.77;;;12.20;;
72053;SDS011;59918;51.280;7.950;2022-11-20T05:00:32;24.92;;;11.55;;
72053;SDS011;59918;51.280;7.950;2022-11-20T05:02:57;25.80;;;11.15;;
72053;SDS011;59918;51.280;7.950;2022-11-20T05:05:22;33.53;;;12.82;;
72053;SDS011;59918;51.280;7.950;2022-11-20T05:07:50;29.02;;;12.23;;
72053;SDS011;59918;51.280;7.950;2022-11-20T05:10:18;37.17;;;12.52;;
72053;SDS011;59918;51.280;7.950;2022-11-20T05:12:43;40.80;;;12.02;;
72053;SDS011;59918;51.280;7.950;2022-11-20T05:15:08;34.40;;;12.65;;
72053;SDS011;59918;51.280;7.950;2022-11-20T05:17:34;34.80;;;11.18;;
72053;SDS011;59918;51.280;7.950;2022-11-20T05:19:59;30.30;;;10.35;;
72053;SDS011;59918;51.280;7.950;2022-11-20T05:22:24;30.42;;;12.65;;
72053;SDS011;59918;51.280;7.950;2022-11-20T05:24:50;32.53;;;11.52;;
72053;SDS011;59918;51.280;7.950;2022-11-20T05:27:15;33.97;;;12.25;;
72053;SDS011;59918;51.280;7.950;2022-11-20T05:29:40;31.13;;;12.90;;
72053;SDS011;59918;51.280;7.950;2022-11-20T05:32:05;40.28;;;14.75;;
72053;SDS011;59918;51.280;7.950;2022-11-20T05:34:31;36.10;;;15.52;;
72053;SDS011;59918;51.280;7.950;2022-11-20T05:36:56;46.28;;;19.02;;
72053;SDS011;59918;51.280;7.950;2022-11-20T05:39:22;44.65;;;16.40;;
72053;SDS011;59918;51.280;7.950;2022-11-20T05:41:47;36.70;;;13.82;;
72053;SDS011;59918;51.280;7.950;2022-11-20T05:44:12;34.45;;;13.43;;
72053;SDS011;59918;51.280;7.950;2022-11-20T05:46:38;36.45;;;11.73;;
72053;SDS011;59918;51.280;7.950;2022-11-20T05:49:03;33.00;;;12.52;;
72053;SDS011;59918;51.280;7.950;2022-11-20T05:51:28;37.60;;;11.30;;
72053;SDS011;59918;51.280;7.950;2022-11-20T05:53:55;38.17;;;13.35;;
72053;SDS011;59918;51.280;7.950;2022-11-20T05:56:21;41.28;;;12.85;;
72053;SDS011;59918;51.280;7.950;2022-11-20T05:58:47;33.72;;;12.20;;
72053;SDS011;59918;51.280;7.950;2022-11-20T06:01:15;36.63;;;13.55;;
72053;SDS011;59918;51.280;7.950;2022-11-20T06:03:45;41.05;;;13.20;;
72053;SDS011;59918;51.280;7.950;2022-11-20T06:06:11;41.47;;;13.07;;
72053;SDS011;59918;51.280;7.950;2022-11-20T06:08:37;42.40;;;13.60;;
72053;SDS011;59918;51.280;7.950;2022-11-20T06:11:03;34.72;;;12.63;;
72053;SDS011;59918;51.280;7.950;2022-11-20T06:13:31;38.13;;;13.30;;
72053;SDS011;59918;51.280;7.950;2022-11-20T06:15:56;40.67;;;12.60;;
72053;SDS011;59918;51.280;7.950;2022-11-20T06:18:21;35.40;;;12.77;;
72053;SDS011;59918;51.280;7.950;2022-11-20T06:20:47;43.13;;;12.38;;
72053;SDS011;59918;51.280;7.950;2022-11-20T06:23:12;34.03;;;12.43;;
72053;SDS011;59918;51.280;7.950;2022-11-20T06:25:41;40.03;;;12.90;;
72053;SDS011;59918;51.280;7.950;2022-11-20T06:28:07;46.30;;;13.18;;
72053;SDS011;59918;51.280;7.950;2022-11-20T06:30:33;42.05;;;13.40;;
72053;SDS011;59918;51.280;7.950;2022-11-20T06:32:58;37.20;;;12.82;;
72053;SDS011;59918;51.280;7.950;2022-11-20T06:35:23;37.75;;;12.63;;
72053;SDS011;59918;51.280;7.950;2022-11-20T06:37:49;37.40;;;13.18;;
72053;SDS011;59918;51.280;7.950;2022-11-20T06:40:14;40.42;;;12.98;;
72053;SDS011;59918;51.280;7.950;2022-11-20T06:42:39;40.53;;;12.23;;
72053;SDS011;59918;51.280;7.950;2022-11-20T06:45:04;42.92;;;15.02;;
72053;SDS011;59918;51.280;7.950;2022-11-20T06:47:30;59.30;;;19.73;;
72053;SDS011;59918;51.280;7.950;2022-11-20T06:50:00;47.50;;;15.60;;
72053;SDS011;59918;51.280;7.950;2022-11-20T06:52:25;56.75;;;14.52;;
72053;SDS011;59918;51.280;7.950;2022-11-20T06:54:51;43.50;;;13.48;;
72053;SDS011;59918;51.280;7.950;2022-11-20T06:57:16;43.28;;;12.93;;
72053;SDS011;59918;51.280;7.950;2022-11-20T06:59:41;38.50;;;12.70;;
72053;SDS011;59918;51.280;7.950;2022-11-20T07:02:09;41.05;;;12.50;;
72053;SDS011;59918;51.280;7.950;2022-11-20T07:04:35;35.55;;;13.38;;
72053;SDS011;59918;51.280;7.950;2022-11-20T07:07:00;41.20;;;12.90;;
72053;SDS011;59918;51.280;7.950;2022-11-20T07:09:25;41.63;;;14.85;;
72053;SDS011;59918;51.280;7.950;2022-11-20T07:11:51;43.88;;;15.38;;
72053;SDS011;59918;51.280;7.950;2022-11-20T07:14:16;58.03;;;16.73;;
72053;SDS011;59918;51.280;7.950;2022-11-20T07:16:41;49.22;;;17.08;;
72053;SDS011;59918;51.280;7.950;2022-11-20T07:19:06;48.65;;;15.13;;
72053;SDS011;59918;51.280;7.950;2022-11-20T07:21:31;40.92;;;14.60;;
72053;SDS011;59918;51.280;7.950;2022-11-20T07:23:57;42.53;;;14.88;;
72053;SDS011;59918;51.280;7.950;2022-11-20T07:26:24;42.63;;;13.98;;
72053;SDS011;59918;51.280;7.950;2022-11-20T07:28:49;39.08;;;14.70;;
72053;SDS011;59918;51.280;7.950;2022-11-20T07:31:14;45.55;;;16.45;;
72053;SDS011;59918;51.280;7.950;2022-11-20T07:33:40;46.22;;;15.63;;
72053;SDS011;59918;51.280;7.950;2022-11-20T07:36:07;46.15;;;14.95;;
72053;SDS011;59918;51.280;7.950;2022-11-20T07:38:32;39.53;;;13.77;;
72053;SDS011;59918;51.280;7.950;2022-11-20T07:40:58;41.60;;;14.30;;
72053;SDS011;59918;51.280;7.950;2022-11-20T07:43:25;36.55;;;13.95;;
72053;SDS011;59918;51.280;7.950;2022-11-20T07:45:50;50.35;;;17.67;;
72053;SDS011;59918;51.280;7.950;2022-11-20T07:48:16;47.08;;;15.75;;
72053;SDS011;59918;51.280;7.950;2022-11-20T07:50:41;49.72;;;17.95;;
72053;SDS011;59918;51.280;7.950;2022-11-20T07:53:09;44.05;;;16.35;;
72053;SDS011;59918;51.280;7.950;2022-11-20T07:55:34;52.45;;;19.08;;
72053;SDS011;59918;51.280;7.950;2022-11-20T07:57:59;53.00;;;17.50;;
72053;SDS011;59918;51.280;7.950;2022-11-20T08:00:26;41.90;;;16.60;;
72053;SDS011;59918;51.280;7.950;2022-11-20T08:02:54;49.17;;;17.75;;
72053;SDS011;59918;51.280;7.950;2022-11-20T08:05:22;50.08;;;18.83;;
72053;SDS011;59918;51.280;7.950;2022-11-20T08:07:48;50.03;;;16.52;;
72053;SDS011;59918;51.280;7.950;2022-11-20T08:10:14;51.58;;;17.17;;
72053;SDS011;59918;51.280;7.950;2022-11-20T08:12:46;45.88;;;17.15;;
72053;SDS011;59918;51.280;7.950;2022-11-20T08:15:13;42.80;;;15.95;;
72053;SDS011;59918;51.280;7.950;2022-11-20T08:17:38;56.00;;;17.27;;
72053;SDS011;59918;51.280;7.950;2022-11-20T08:20:04;42.38;;;15.05;;
72053;SDS011;59918;51.280;7.950;2022-11-20T08:22:29;48.78;;;17.52;;
72053;SDS011;59918;51.280;7.950;2022-11-20T08:24:54;48.45;;;16.45;;
72053;SDS011;59918;51.280;7.950;2022-11-20T08:27:20;42.80;;;17.77;;
72053;SDS011;59918;51.280;7.950;2022-11-20T08:29:45;48.63;;;16.80;;
72053;SDS011;59918;51.280;7.950;2022-11-20T08:32:10;45.20;;;16.05;;
72053;SDS011;59918;51.280;7.950;2022-11-20T08:34:35;46.88;;;18.48;;
72053;SDS011;59918;51.280;7.950;2022-11-20T08:37:01;52.80;;;18.63;;
72053;SDS011;59918;51.280;7.950;2022-11-20T08:39:27;45.17;;;18.83;;
72053;SDS011;59918;51.280;7.950;2022-11-20T08:41:52;51.75;;;19.40;;
72053;SDS011;59918;51.280;7.950;2022-11-20T08:44:17;54.88;;;20.38;;
72053;SDS011;59918;51.280;7.950;2022-11-20T08:46:45;54.67;;;21.38;;
72053;SDS011;59918;51.280;7.950;2022-11-20T08:49:11;49.10;;;17.73;;
72053;SDS011;59918;51.280;7.950;2022-11-20T08:51:38;50.95;;;18.70;;
72053;SDS011;59918;51.280;7.950;2022-11-20T08:54:04;47.97;;;18.60;;
72053;SDS011;59918;51.280;7.950;2022-11-20T08:56:30;42.78;;;18.88;;
72053;SDS011;59918;51.280;7.950;2022-11-20T08:58:58;46.75;;;18.35;;
72053;SDS011;59918;51.280;7.950;2022-11-20T09:01:23;48.72;;;19.02;;
72053;SDS011;59918;51.280;7.950;2022-11-20T09:03:49;45.85;;;19.13;;
72053;SDS011;59918;51.280;7.950;2022-11-20T09:06:14;49.35;;;18.65;;
72053;SDS011;59918;51.280;7.950;2022-11-20T09:08:40;41.72;;;18.65;;
72053;SDS011;59918;51.280;7.950;2022-11-20T09:11:05;34.10;;;13.85;;
72053;SDS011;59918;51.280;7.950;2022-11-20T09:13:31;28.30;;;12.73;;
72053;SDS011;59918;51.280;7.950;2022-11-20T09:15:59;25.27;;;12.07;;
72053;SDS011;59918;51.280;7.950;2022-11-20T09:18:26;27.77;;;12.43;;
72053;SDS011;59918;51.280;7.950;2022-11-20T09:20:56;19.42;;;10.88;;
72053;SDS011;59918;51.280;7.950;2022-11-20T09:23:22;26.73;;;12.02;;
72053;SDS011;59918;51.280;7.950;2022-11-20T09:31:27;18.30;;;9.65;;
72053;SDS011;59918;51.280;7.950;2022-11-20T09:33:52;22.42;;;12.02;;
72053;SDS011;59918;51.280;7.950;2022-11-20T09:36:20;26.80;;;12.65;;
72053;SDS011;59918;51.280;7.950;2022-11-20T09:38:45;22.58;;;11.65;;
72053;SDS011;59918;51.280;7.950;2022-11-20T09:41:54;20.70;;;11.77;;
72053;SDS011;59918;51.280;7.950;2022-11-20T09:46:57;16.65;;;10.00;;
72053;SDS011;59918;51.280;7.950;2022-11-20T09:54:52;11.25;;;7.60;;
72053;SDS011;59918;51.280;7.950;2022-11-20T09:57:33;13.93;;;8.57;;
72053;SDS011;59918;51.280;7.950;2022-11-20T10:00:02;11.70;;;7.97;;
72053;SDS011;59918;51.280;7.950;2022-11-20T10:02:37;12.02;;;7.72;;
72053;SDS011;59918;51.280;7.950;2022-11-20T10:05:09;12.95;;;7.63;;
72053;SDS011;59918;51.280;7.950;2022-11-20T10:10:43;16.17;;;9.20;;
72053;SDS011;59918;51.280;7.950;2022-11-20T10:23:48;16.27;;;8.10;;
72053;SDS011;59918;51.280;7.950;2022-11-20T10:26:43;11.18;;;7.03;;
72053;SDS011;59918;51.280;7.950;2022-11-20T10:29:19;11.63;;;8.55;;
72053;SDS011;59918;51.280;7.950;2022-11-20T10:31:52;11.50;;;7.97;;
72053;SDS011;59918;51.280;7.950;2022-11-20T10:34:23;14.70;;;8.50;;
72053;SDS011;59918;51.280;7.950;2022-11-20T10:37:15;11.55;;;7.57;;
72053;SDS011;59918;51.280;7.950;2022-11-20T10:42:45;12.68;;;7.70;;
72053;SDS011;59918;51.280;7.950;2022-11-20T10:47:48;14.70;;;8.63;;
72053;SDS011;59918;51.280;7.950;2022-11-20T10:50:16;13.63;;;8.38;;
72053;SDS011;59918;51.280;7.950;2022-11-20T11:01:39;13.18;;;7.90;;
72053;SDS011;59918;51.280;7.950;2022-11-20T11:03:50;13.48;;;7.82;;
72053;SDS011;59918;51.280;7.950;2022-11-20T11:06:34;12.32;;;8.25;;
72053;SDS011;59918;51.280;7.950;2022-11-20T11:09:11;13.43;;;8.48;;
72053;SDS011;59918;51.280;7.950;2022-11-20T11:11:45;15.30;;;8.70;;
72053;SDS011;59918;51.280;7.950;2022-11-20T11:14:14;15.05;;;8.95;;
72053;SDS011;59918;51.280;7.950;2022-11-20T11:16:56;11.50;;;7.82;;
72053;SDS011;59918;51.280;7.950;2022-11-20T11:19:23;13.95;;;8.55;;
72053;SDS011;59918;51.280;7.950;2022-11-20T11:21:53;16.33;;;9.88;;
72053;SDS011;59918;51.280;7.950;2022-11-20T11:26:59;11.75;;;7.95;;
72053;SDS011;59918;51.280;7.950;2022-11-20T11:29:27;13.85;;;8.63;;
72053;SDS011;59918;51.280;7.950;2022-11-20T11:32:02;12.52;;;8.23;;
72053;SDS011;59918;51.280;7.950;2022-11-20T11:34:32;13.50;;;7.85;;
72053;SDS011;59918;51.280;7.950;2022-11-20T11:36:57;12.98;;;8.68;;
72053;SDS011;59918;51.280;7.950;2022-11-20T11:39:24;14.93;;;8.85;;
72053;SDS011;59918;51.280;7.950;2022-11-20T11:41:58;13.98;;;8.38;;
72053;SDS011;59918;51.280;7.950;2022-11-20T11:46:55;11.63;;;7.28;;
72053;SDS011;59918;51.280;7.950;2022-11-20T11:49:24;13.88;;;7.70;;
72053;SDS011;59918;51.280;7.950;2022-11-20T11:54:22;10.15;;;6.97;;
72053;SDS011;59918;51.280;7.950;2022-11-20T11:56:50;9.77;;;6.45;;
72053;SDS011;59918;51.280;7.950;2022-11-20T12:02:11;11.57;;;6.70;;
72053;SDS011;59918;51.280;7.950;2022-11-20T12:04:52;8.88;;;6.07;;
72053;SDS011;59918;51.280;7.950;2022-11-20T12:07:43;9.50;;;6.60;;
72053;SDS011;59918;51.280;7.950;2022-11-20T12:12:45;10.80;;;7.00;;
72053;SDS011;59918;51.280;7.950;2022-11-20T12:15:22;14.45;;;7.10;;
72053;SDS011;59918;51.280;7.950;2022-11-20T12:17:51;11.25;;;6.60;;
72053;SDS011;59918;51.280;7.950;2022-11-20T12:20:16;11.77;;;7.25;;
72053;SDS011;59918;51.280;7.950;2022-11-20T12:23:07;11.80;;;7.40;;
72053;SDS011;59918;51.280;7.950;2022-11-20T12:25:52;11.93;;;7.75;;
72053;SDS011;59918;51.280;7.950;2022-11-20T12:34:46;13.07;;;7.55;;
72053;SDS011;59918;51.280;7.950;2022-11-20T12:39:51;13.65;;;8.18;;
72053;SDS011;59918;51.280;7.950;2022-11-20T12:42:36;16.40;;;8.95;;
72053;SDS011;59918;51.280;7.950;2022-11-20T12:53:04;14.73;;;8.52;;
72053;SDS011;59918;51.280;7.950;2022-11-20T12:55:49;15.10;;;8.40;;
72053;SDS011;59918;51.280;7.950;2022-11-20T13:01:09;15.05;;;8.10;;
72053;SDS011;59918;51.280;7.950;2022-11-20T13:03:47;15.52;;;9.45;;
72053;SDS011;59918;51.280;7.950;2022-11-20T13:06:18;14.70;;;8.82;;
72053;SDS011;59918;51.280;7.950;2022-11-20T13:08:54;15.20;;;9.20;;
72053;SDS011;59918;51.280;7.950;2022-11-20T13:11:25;15.80;;;9.30;;
72053;SDS011;59918;51.280;7.950;2022-11-20T13:19:33;15.93;;;9.07;;
72053;SDS011;59918;51.280;7.950;2022-11-20T13:21:59;15.68;;;9.45;;
72053;SDS011;59918;51.280;7.950;2022-11-20T13:24:28;15.30;;;10.02;;
72053;SDS011;59918;51.280;7.950;2022-11-20T13:29:30;13.68;;;9.20;;
72053;SDS011;59918;51.280;7.950;2022-11-20T13:32:14;16.90;;;9.85;;
72053;SDS011;59918;51.280;7.950;2022-11-20T13:34:57;13.25;;;8.48;;
72053;SDS011;59918;51.280;7.950;2022-11-20T13:37:26;14.68;;;8.65;;
72053;SDS011;59918;51.280;7.950;2022-11-20T13:42:37;14.90;;;9.27;;
72053;SDS011;59918;51.280;7.950;2022-11-20T13:45:10;12.73;;;7.80;;
72053;SDS011;59918;51.280;7.950;2022-11-20T13:47:49;17.50;;;9.73;;
72053;SDS011;59918;51.280;7.950;2022-11-20T13:50:15;15.23;;;9.13;;
72053;SDS011;59918;51.280;7.950;2022-11-20T14:00:57;15.68;;;9.13;;
72053;SDS011;59918;51.280;7.950;2022-11-20T14:03:25;15.38;;;10.00;;
72053;SDS011;59918;51.280;7.950;2022-11-20T14:05:55;14.50;;;9.98;;
72053;SDS011;59918;51.280;7.950;2022-11-20T14:08:25;19.25;;;10.38;;
72053;SDS011;59918;51.280;7.950;2022-11-20T14:11:05;16.55;;;10.13;;
72053;SDS011;59918;51.280;7.950;2022-11-20T14:16:27;17.77;;;10.20;;
72053;SDS011;59918;51.280;7.950;2022-11-20T14:18:54;16.48;;;11.25;;
72053;SDS011;59918;51.280;7.950;2022-11-20T14:21:27;17.80;;;10.43;;
72053;SDS011;59918;51.280;7.950;2022-11-20T14:24:02;16.45;;;9.68;;
72053;SDS011;59918;51.280;7.950;2022-11-20T14:26:29;17.83;;;10.73;;
72053;SDS011;59918;51.280;7.950;2022-11-20T14:28:54;20.98;;;10.82;;
72053;SDS011;59918;51.280;7.950;2022-11-20T14:31:23;18.63;;;10.82;;
72053;SDS011;59918;51.280;7.950;2022-11-20T14:33:51;18.27;;;11.05;;
72053;SDS011;59918;51.280;7.950;2022-11-20T14:36:18;19.55;;;10.38;;
72053;SDS011;59918;51.280;7.950;2022-11-20T14:38:46;20.17;;;11.48;;
72053;SDS011;59918;51.280;7.950;2022-11-20T14:41:21;16.85;;;10.05;;
72053;SDS011;59918;51.280;7.950;2022-11-20T14:43:56;23.33;;;11.23;;
72053;SDS011;59918;51.280;7.950;2022-11-20T14:46:22;26.05;;;12.48;;
72053;SDS011;59918;51.280;7.950;2022-11-20T14:48:55;23.52;;;11.48;;
72053;SDS011;59918;51.280;7.950;2022-11-20T14:51:32;23.27;;;11.70;;
72053;SDS011;59918;51.280;7.950;2022-11-20T14:54:11;22.00;;;11.68;;
72053;SDS011;59918;51.280;7.950;2022-11-20T14:56:41;24.17;;;12.55;;
72053;SDS011;59918;51.280;7.950;2022-11-20T14:59:22;23.88;;;12.55;;
72053;SDS011;59918;51.280;7.950;2022-11-20T15:01:54;22.63;;;11.98;;
72053;SDS011;59918;51.280;7.950;2022-11-20T15:04:20;21.15;;;12.10;;
72053;SDS011;59918;51.280;7.950;2022-11-20T15:06:50;22.10;;;11.77;;
72053;SDS011;59918;51.280;7.950;2022-11-20T15:09:17;24.63;;;12.68;;
72053;SDS011;59918;51.280;7.950;2022-11-20T15:11:51;24.02;;;13.07;;
72053;SDS011;59918;51.280;7.950;2022-11-20T15:14:21;26.52;;;13.32;;
72053;SDS011;59918;51.280;7.950;2022-11-20T15:16:50;28.42;;;12.75;;
72053;SDS011;59918;51.280;7.950;2022-11-20T15:19:18;26.60;;;13.05;;
72053;SDS011;59918;51.280;7.950;2022-11-20T15:21:47;23.77;;;14.20;;
72053;SDS011;59918;51.280;7.950;2022-11-20T15:24:15;28.25;;;14.10;;
72053;SDS011;59918;51.280;7.950;2022-11-20T15:26:41;25.38;;;13.93;;
72053;SDS011;59918;51.280;7.950;2022-11-20T15:29:16;30.90;;;14.10;;
72053;SDS011;59918;51.280;7.950;2022-11-20T15:31:41;26.52;;;13.98;;
72053;SDS011;59918;51.280;7.950;2022-11-20T15:34:10;33.35;;;14.77;;
72053;SDS011;59918;51.280;7.950;2022-11-20T15:36:36;31.90;;;14.93;;
72053;SDS011;59918;51.280;7.950;2022-11-20T15:39:01;32.85;;;15.55;;
72053;SDS011;59918;51.280;7.950;2022-11-20T15:41:29;34.90;;;16.30;;
72053;SDS011;59918;51.280;7.950;2022-11-20T15:43:54;31.13;;;14.65;;
72053;SDS011;59918;51.280;7.950;2022-11-20T15:46:23;35.00;;;15.70;;
72053;SDS011;59918;51.280;7.950;2022-11-20T15:53:55;43.05;;;17.75;;
72053;SDS011;59918;51.280;7.950;2022-11-20T15:56:23;38.50;;;17.77;;
72053;SDS011;59918;51.280;7.950;2022-11-20T15:58:48;43.50;;;18.17;;
72053;SDS011;59918;51.280;7.950;2022-11-20T16:01:15;46.65;;;20.55;;
72053;SDS011;59918;51.280;7.950;2022-11-20T16:03:43;44.70;;;18.10;;
72053;SDS011;59918;51.280;7.950;2022-11-20T16:06:11;51.05;;;22.95;;
72053;SDS011;59918;51.280;7.950;2022-11-20T16:08:40;103.72;;;40.60;;
72053;SDS011;59918;51.280;7.950;2022-11-20T16:11:05;49.63;;;20.38;;
72053;SDS011;59918;51.280;7.950;2022-11-20T16:13:31;76.65;;;30.92;;
72053;SDS011;59918;51.280;7.950;2022-11-20T16:15:59;61.00;;;26.92;;
72053;SDS011;59918;51.280;7.950;2022-11-20T16:18:28;49.58;;;21.83;;